Time;durP1;ratioP1;P1;durP2;ratioP2;P2;SDS_P1;SDS_P2;PMS_P1;PMS_P2;Temp;Humidity;BMP_temperature;BMP_pressure;BME280_temperature;BME280_humidity;BME280_pressure;Samples;Min_cycle;Max_cycle;Signal;HPM_P1;HPM_P2
2022/07/28 00:01:21;;;;;;;;;;;;;;;;;;5015561;28;19964;-42
2022/07/28 00:03:47;;;;;;;;;;;;;;;;;;5015129;28;19978;-42
2022/07/28 00:06:13;;;;;;;;;;;;;;;;;;5015150;28;19918;-41
2022/07/28 00:08:38;;;;;;;;;;;;;;;;;;5015179;28;19909;-42
2022/07/28 00:11:03;;;;;;;;;;;;;;;;;;5015219;28;19922;-42
2022/07/28 00:13:28;;;;;;;;;;;;;;;;;;5015229;28;20347;-42
2022/07/28 00:15:54;;;;;;;;;;;;;;;;;;5015247;28;19959;-42
2022/07/28 00:18:19;;;;;;;;;;;;;;;;;;5014045;28;19920;-42
2022/07/28 00:20:44;;;;;;;;;;;;;;;;;;5014960;28;20378;-42
2022/07/28 00:23:09;;;;;;;;;;;;;;;;;;5015151;28;19905;-42
2022/07/28 00:25:35;;;;;;;;;;;;;;;;;;5014839;28;20363;-42
2022/07/28 00:28:00;;;;;;;;;;;;;;;;;;5014999;28;20457;-43
2022/07/28 00:30:25;;;;;;;;;;;;;;;;;;5014588;28;19948;-42
2022/07/28 00:32:50;;;;;;;;;;;;;;;;;;5013332;28;19909;-42
2022/07/28 00:35:16;;;;;;;;;;;;;;;;;;5014843;28;20000;-41
2022/07/28 00:37:41;;;;;;;;;;;;;;;;;;5014827;28;19909;-42
2022/07/28 00:40:06;;;;;;;;;;;;;;;;;;5014750;28;19913;-42
2022/07/28 00:42:31;;;;;;;;;;;;;;;;;;5014423;28;19905;-42
2022/07/28 00:44:57;;;;;;;;;;;;;;;;;;5014379;28;19948;-42
2022/07/28 00:47:22;;;;;;;;;;;;;;;;;;5014420;28;19909;-43
2022/07/28 00:49:49;;;;;;;;;;;;;;;;;;5014113;28;19920;-42
2022/07/28 00:52:14;;;;;;;;;;;;;;;;;;5014282;28;20382;-43
2022/07/28 00:54:39;;;;;;;;;;;;;;;;;;5014214;28;20000;-43
2022/07/28 00:57:04;;;;;;;;;;;;;;;;;;5014157;28;19905;-42
2022/07/28 00:59:30;;;;;;;;;;;;;;;;;;5014463;28;20248;-44
2022/07/28 01:01:55;;;;;;;;;;;;;;;;;;5014277;28;20390;-42
2022/07/28 01:04:20;;;;;;;;;;;;;;;;;;5013969;28;19924;-42
2022/07/28 01:06:46;;;;;;;;;;;;;;;;;;5014004;28;19905;-42
2022/07/28 01:09:11;;;;;;;;;;;;;;;;;;5014237;28;19913;-43
2022/07/28 01:11:36;;;;;;;;;;;;;;;;;;5014129;28;20367;-42
2022/07/28 01:14:06;;;;;;;;;;;;;;;;;;5014166;28;19913;-42
2022/07/28 01:16:31;;;;;;;;;;;;;;;;;;5013801;28;19913;-43
2022/07/28 01:18:56;;;;;;;;;;;;;;;;;;5013673;28;19910;-42
2022/07/28 01:21:22;;;;;;;;;;;;;;;;;;5013788;28;19923;-42
2022/07/28 01:23:47;;;;;;;;;;;;;;;;;;5013865;28;20260;-43
2022/07/28 01:26:13;;;;;;;;;;;;;;;;;;5013973;28;19960;-41
2022/07/28 01:28:38;;;;;;;;;;;;;;;;;;5013886;28;19914;-42
2022/07/28 01:31:03;;;;;;;;;;;;;;;;;;5013421;28;20285;-42
2022/07/28 01:33:28;;;;;;;;;;;;;;;;;;5013553;28;19952;-42
2022/07/28 01:35:54;;;;;;;;;;;;;;;;;;5013423;28;19905;-41
2022/07/28 01:38:19;;;;;;;;;;;;;;;;;;5013370;28;19931;-42
2022/07/28 01:40:44;;;;;;;;;;;;;;;;;;5012774;28;19913;-42
2022/07/28 01:43:10;;;;;;;;;;;;;;;;;;5013439;28;20043;-42
2022/07/28 01:45:36;;;;;;;;;;;;;;;;;;5013542;28;20204;-42
2022/07/28 01:48:02;;;;;;;;;;;;;;;;;;5013227;28;19909;-42
2022/07/28 01:50:27;;;;;;;;;;;;;;;;;;5013123;28;19913;-42
2022/07/28 01:52:52;;;;;;;;;;;;;;;;;;5013356;28;20047;-42
2022/07/28 01:55:17;;;;;;;;;;;;;;;;;;5013135;28;19906;-42
2022/07/28 01:57:43;;;;;;;;;;;;;;;;;;5013314;28;20432;-41
2022/07/28 02:00:12;;;;;;;;;;;;;;;;;;5013254;28;20295;-41
2022/07/28 02:02:38;;;;;;;;;;;;;;;;;;5012897;28;20315;-42
2022/07/28 02:05:03;;;;;;;;;;;;;;;;;;5012992;28;19924;-42
2022/07/28 02:07:28;;;;;;;;;;;;;;;;;;5012932;28;20382;-42
2022/07/28 02:09:54;;;;;;;;;;;;;;;;;;5012678;28;20351;-43
2022/07/28 02:12:19;;;;;;;;;;;;;;;;;;5013166;28;19909;-42
2022/07/28 02:14:44;;;;;;;;;;;;;;;;;;5012698;28;19963;-42
2022/07/28 02:17:09;;;;;;;;;;;;;;;;;;5013087;28;19913;-42
2022/07/28 02:19:35;;;;;;;;;;;;;;;;;;5012675;28;20283;-42
2022/07/28 02:22:00;;;;;;;;;;;;;;;;;;5012541;28;20276;-42
2022/07/28 02:24:25;;;;;;;;;;;;;;;;;;5012603;28;19945;-42
2022/07/28 02:26:50;;;;;;;;;;;;;;;;;;5012526;28;19960;-42
2022/07/28 02:29:16;;;;;;;;;;;;;;;;;;5012412;28;19905;-44
2022/07/28 02:31:42;;;;;;;;;;;;;;;;;;5012613;28;20318;-41
2022/07/28 02:34:08;;;;;;;;;;;;;;;;;;5012457;28;20403;-42
2022/07/28 02:36:33;;;;;;;;;;;;;;;;;;5012460;28;19996;-42
2022/07/28 02:38:58;;;;;;;;;;;;;;;;;;5012311;28;19905;-42
2022/07/28 02:41:24;;;;;;;;;;;;;;;;;;5012387;28;19915;-43
2022/07/28 02:43:50;;;;;;;;;;;;;;;;;;5012328;28;19905;-43
2022/07/28 02:46:15;;;;;;;;;;;;;;;;;;5011060;28;20282;-42
2022/07/28 02:48:40;;;;;;;;;;;;;;;;;;5012273;28;19905;-43
2022/07/28 02:51:06;;;;;;;;;;;;;;;;;;5012127;28;20330;-42
2022/07/28 02:53:31;;;;;;;;;;;;;;;;;;5012296;28;20008;-42
2022/07/28 02:55:56;;;;;;;;;;;;;;;;;;5012179;28;19916;-42
2022/07/28 02:58:22;;;;;;;;;;;;;;;;;;5012147;28;19905;-42
2022/07/28 03:00:47;;;;;;;;;;;;;;;;;;5012023;28;20311;-42
2022/07/28 03:03:12;;;;;;;;;;;;;;;;;;5011902;28;19925;-43
2022/07/28 03:05:37;;;;;;;;;;;;;;;;;;5012115;28;19914;-42
2022/07/28 03:08:03;;;;;;;;;;;;;;;;;;5012266;28;19920;-42
2022/07/28 03:10:28;;;;;;;;;;;;;;;;;;5012189;28;20012;-42
2022/07/28 03:12:54;;;;;;;;;;;;;;;;;;5010896;28;20299;-42
2022/07/28 03:15:19;;;;;;;;;;;;;;;;;;5012094;28;20275;-42
2022/07/28 03:17:44;;;;;;;;;;;;;;;;;;5012157;28;20266;-42
2022/07/28 03:20:09;;;;;;;;;;;;;;;;;;5012012;28;19909;-43
2022/07/28 03:22:35;;;;;;;;;;;;;;;;;;5012037;28;19905;-43
2022/07/28 03:25:00;;;;;;;;;;;;;;;;;;5011936;28;19909;-43
2022/07/28 03:27:26;;;;;;;;;;;;;;;;;;5012199;28;19906;-42
2022/07/28 03:29:51;;;;;;;;;;;;;;;;;;5011701;28;19914;-42
2022/07/28 03:32:16;;;;;;;;;;;;;;;;;;5010619;28;19905;-42
2022/07/28 03:34:42;;;;;;;;;;;;;;;;;;5010577;28;20004;-42
2022/07/28 03:37:07;;;;;;;;;;;;;;;;;;5011765;28;19952;-44
2022/07/28 03:39:32;;;;;;;;;;;;;;;;;;5011712;28;19964;-42
2022/07/28 03:41:57;;;;;;;;;;;;;;;;;;5011743;28;19941;-42
2022/07/28 03:44:23;;;;;;;;;;;;;;;;;;5012127;28;19919;-41
2022/07/28 03:46:48;;;;;;;;;;;;;;;;;;5011629;28;19909;-42
2022/07/28 03:49:13;;;;;;;;;;;;;;;;;;5011910;28;19956;-42
2022/07/28 03:51:38;;;;;;;;;;;;;;;;;;5011709;28;19913;-43
2022/07/28 03:54:04;;;;;;;;;;;;;;;;;;5011844;28;20427;-42
2022/07/28 03:56:29;;;;;;;;;;;;;;;;;;5011682;28;19910;-42
2022/07/28 03:58:54;;;;;;;;;;;;;;;;;;5011552;28;19959;-42
2022/07/28 04:01:19;;;;;;;;;;;;;;;;;;5011834;28;19905;-43
2022/07/28 04:03:45;;;;;;;;;;;;;;;;;;5011947;28;20003;-42
2022/07/28 04:06:10;;;;;;;;;;;;;;;;;;5015219;28;19944;-43
2022/07/28 04:08:35;;;;;;;;;;;;;;;;;;5015069;28;19909;-42
2022/07/28 04:11:00;;;;;;;;;;;;;;;;;;5014986;28;19914;-42
2022/07/28 04:13:26;;;;;;;;;;;;;;;;;;5015069;28;20312;-43
2022/07/28 04:15:51;;;;;;;;;;;;;;;;;;5014920;28;19905;-42
2022/07/28 04:18:17;;;;;;;;;;;;;;;;;;5015011;28;19949;-43
2022/07/28 04:20:42;;;;;;;;;;;;;;;;;;5014939;28;19920;-44
2022/07/28 04:23:08;;;;;;;;;;;;;;;;;;5015046;28;20010;-43
2022/07/28 04:25:34;;;;;;;;;;;;;;;;;;5014823;28;19928;-42
2022/07/28 04:28:01;;;;;;;;;;;;;;;;;;5014704;28;20003;-42
2022/07/28 04:30:27;;;;;;;;;;;;;;;;;;5014594;28;19967;-41
2022/07/28 04:32:52;;;;;;;;;;;;;;;;;;5014883;28;19910;-44
2022/07/28 04:35:18;;;;;;;;;;;;;;;;;;5014638;28;19959;-42
2022/07/28 04:37:43;;;;;;;;;;;;;;;;;;5014610;28;19919;-43
2022/07/28 04:40:08;;;;;;;;;;;;;;;;;;5014452;28;19913;-41
2022/07/28 04:42:35;;;;;;;;;;;;;;;;;;5014536;28;19915;-42
2022/07/28 04:45:00;;;;;;;;;;;;;;;;;;5014328;28;19905;-43
2022/07/28 04:47:27;;;;;;;;;;;;;;;;;;5014455;28;19909;-44
2022/07/28 04:49:52;;;;;;;;;;;;;;;;;;5014143;28;19968;-43
2022/07/28 04:52:18;;;;;;;;;;;;;;;;;;5014620;28;19955;-41
2022/07/28 04:54:44;;;;;;;;;;;;;;;;;;5014350;28;19975;-41
2022/07/28 04:57:10;;;;;;;;;;;;;;;;;;5014089;28;20367;-42
2022/07/28 04:59:35;;;;;;;;;;;;;;;;;;5014492;28;19916;-42
2022/07/28 05:02:01;;;;;;;;;;;;;;;;;;5014316;28;19910;-41
2022/07/28 05:04:26;;;;;;;;;;;;;;;;;;5013921;28;20008;-42
2022/07/28 05:06:51;;;;;;;;;;;;;;;;;;5014291;28;19913;-43
2022/07/28 05:09:17;;;;;;;;;;;;;;;;;;5012695;28;20270;-44
2022/07/28 05:11:42;;;;;;;;;;;;;;;;;;5013894;28;20142;-42
2022/07/28 05:14:07;;;;;;;;;;;;;;;;;;5013886;28;19916;-42
2022/07/28 05:16:33;;;;;;;;;;;;;;;;;;5012893;28;19914;-43
2022/07/28 05:19:01;;;;;;;;;;;;;;;;;;5013919;28;20271;-42
2022/07/28 05:21:27;;;;;;;;;;;;;;;;;;5013857;28;19910;-43
2022/07/28 05:23:52;;;;;;;;;;;;;;;;;;5013740;28;20426;-42
2022/07/28 05:26:17;;;;;;;;;;;;;;;;;;5013895;28;19972;-46
2022/07/28 05:28:43;;;;;;;;;;;;;;;;;;5013682;28;20425;-43
2022/07/28 05:31:08;;;;;;;;;;;;;;;;;;5013507;28;19917;-42
2022/07/28 05:33:33;;;;;;;;;;;;;;;;;;5013488;28;20429;-43
2022/07/28 05:35:59;;;;;;;;;;;;;;;;;;5013446;28;19909;-42
2022/07/28 05:38:24;;;;;;;;;;;;;;;;;;5013434;28;19910;-42
2022/07/28 05:40:49;;;;;;;;;;;;;;;;;;5013287;28;19928;-42
2022/07/28 05:43:14;;;;;;;;;;;;;;;;;;5013380;28;19971;-42
2022/07/28 05:45:40;;;;;;;;;;;;;;;;;;5013357;28;19913;-42
2022/07/28 05:48:05;;;;;;;;;;;;;;;;;;5013110;28;19913;-41
2022/07/28 05:50:31;;;;;;;;;;;;;;;;;;5013230;28;19921;-42
2022/07/28 05:52:56;;;;;;;;;;;;;;;;;;5013130;28;20366;-42
2022/07/28 05:55:21;;;;;;;;;;;;;;;;;;5013151;28;20008;-43
2022/07/28 05:57:47;;;;;;;;;;;;;;;;;;5013363;28;19905;-42
2022/07/28 06:00:12;;;;;;;;;;;;;;;;;;5013299;28;20000;-42
2022/07/28 06:02:38;;;;;;;;;;;;;;;;;;5012827;28;20018;-41
2022/07/28 06:05:05;;;;;;;;;;;;;;;;;;5012995;28;19917;-42
2022/07/28 06:07:30;;;;;;;;;;;;;;;;;;5013237;28;20283;-43
2022/07/28 06:09:56;;;;;;;;;;;;;;;;;;5012610;28;19913;-46
2022/07/28 06:12:21;;;;;;;;;;;;;;;;;;5011720;28;19905;-42
2022/07/28 06:14:47;;;;;;;;;;;;;;;;;;5012805;28;20004;-41
2022/07/28 06:17:14;;;;;;;;;;;;;;;;;;5012777;28;19905;-41
2022/07/28 06:19:40;;;;;;;;;;;;;;;;;;5011410;28;20283;-42
2022/07/28 06:22:05;;;;;;;;;;;;;;;;;;5012588;28;19946;-42
2022/07/28 06:24:31;;;;;;;;;;;;;;;;;;5012952;28;19995;-42
2022/07/28 06:26:56;;;;;;;;;;;;;;;;;;5012282;28;20386;-41
2022/07/28 06:29:23;;;;;;;;;;;;;;;;;;5012799;28;19920;-42
2022/07/28 06:31:48;;;;;;;;;;;;;;;;;;5012356;28;19917;-42
2022/07/28 06:34:14;;;;;;;;;;;;;;;;;;5012591;28;19943;-42
2022/07/28 06:36:39;;;;;;;;;;;;;;;;;;5012506;28;19905;-42
2022/07/28 06:39:05;;;;;;;;;;;;;;;;;;5012297;28;19909;-42
2022/07/28 06:41:40;;;;;;;;;;;;;;;;;;5012734;28;19959;-42
2022/07/28 06:44:07;;;;;;;;;;;;;;;;;;5011050;28;20305;-42
2022/07/28 06:46:33;;;;;;;;;;;;;;;;;;5012368;28;19905;-42
2022/07/28 06:48:58;;;;;;;;;;;;;;;;;;5012282;28;19917;-41
2022/07/28 06:51:23;;;;;;;;;;;;;;;;;;5012134;28;20028;-41
2022/07/28 06:53:49;;;;;;;;;;;;;;;;;;5010887;28;19917;-42
2022/07/28 06:56:14;;;;;;;;;;;;;;;;;;5012340;28;19905;-41
2022/07/28 06:58:40;;;;;;;;;;;;;;;;;;5012178;28;20437;-42
2022/07/28 07:01:06;;;;;;;;;;;;;;;;;;5012137;28;19913;-42
2022/07/28 07:03:31;;;;;;;;;;;;;;;;;;5012130;28;20014;-41
2022/07/28 07:05:57;;;;;;;;;;;;;;;;;;5010752;28;19945;-42
2022/07/28 07:08:23;;;;;;;;;;;;;;;;;;5012155;28;19963;-42
2022/07/28 07:10:48;;;;;;;;;;;;;;;;;;5010744;28;19914;-42
2022/07/28 07:13:14;;;;;;;;;;;;;;;;;;5012111;28;19909;-43
2022/07/28 07:15:40;;;;;;;;;;;;;;;;;;5012159;28;19910;-43
2022/07/28 07:18:05;;;;;;;;;;;;;;;;;;5011895;28;19953;-42
2022/07/28 07:20:31;;;;;;;;;;;;;;;;;;5012028;28;19912;-41
2022/07/28 07:22:57;;;;;;;;;;;;;;;;;;5012017;28;19916;-41
2022/07/28 07:25:22;;;;;;;;;;;;;;;;;;5011965;28;20023;-42
2022/07/28 07:27:47;;;;;;;;;;;;;;;;;;5011795;28;19909;-42
2022/07/28 07:30:13;;;;;;;;;;;;;;;;;;5011891;28;19926;-42
2022/07/28 07:32:39;;;;;;;;;;;;;;;;;;5010605;28;19909;-42
2022/07/28 07:35:04;;;;;;;;;;;;;;;;;;5011770;28;19912;-42
2022/07/28 07:37:33;;;;;;;;;;;;;;;;;;5012108;28;19913;-42
2022/07/28 07:39:59;;;;;;;;;;;;;;;;;;5014419;28;19905;-42
2022/07/28 07:42:24;;;;;;;;;;;;;;;;;;5015881;28;19916;-42
2022/07/28 07:44:50;;;;;;;;;;;;;;;;;;5015818;28;19909;-41
2022/07/28 07:47:16;;;;;;;;;;;;;;;;;;5015576;28;19956;-42
2022/07/28 07:49:41;;;;;;;;;;;;;;;;;;5014443;28;19910;-43
2022/07/28 07:52:07;;;;;;;;;;;;;;;;;;5015436;28;19913;-41
2022/07/28 07:54:32;;;;;;;;;;;;;;;;;;5015465;28;19915;-42
2022/07/28 07:56:57;;;;;;;;;;;;;;;;;;5015550;28;20008;-42
2022/07/28 07:59:23;;;;;;;;;;;;;;;;;;5015313;28;20346;-42
2022/07/28 08:01:53;;;;;;;;;;;;;;;;;;5015190;28;19913;-42
2022/07/28 08:04:18;;;;;;;;;;;;;;;;;;5015171;28;19975;-42
2022/07/28 08:06:44;;;;;;;;;;;;;;;;;;5015543;28;19917;-42
2022/07/28 08:09:09;;;;;;;;;;;;;;;;;;5014956;28;20264;-41
2022/07/28 08:11:35;;;;;;;;;;;;;;;;;;5015302;28;19922;-42
2022/07/28 08:14:00;;;;;;;;;;;;;;;;;;5014962;28;19916;-43
2022/07/28 08:16:26;;;;;;;;;;;;;;;;;;5014941;28;20007;-42
2022/07/28 08:18:57;;;;;;;;;;;;;;;;;;5014824;28;19905;-42
2022/07/28 08:21:22;;;;;;;;;;;;;;;;;;5013679;28;19910;-42
2022/07/28 08:23:47;;;;;;;;;;;;;;;;;;5014861;28;19912;-42
2022/07/28 08:26:13;;;;;;;;;;;;;;;;;;5014888;28;20015;-42
2022/07/28 08:28:38;;;;;;;;;;;;;;;;;;5014709;28;20001;-41
2022/07/28 08:31:04;;;;;;;;;;;;;;;;;;5014621;28;20418;-41
2022/07/28 08:33:29;;;;;;;;;;;;;;;;;;5014688;28;19905;-42
2022/07/28 08:35:55;;;;;;;;;;;;;;;;;;5014587;28;19916;-43
2022/07/28 08:38:20;;;;;;;;;;;;;;;;;;5014530;28;19905;-42
2022/07/28 08:40:46;;;;;;;;;;;;;;;;;;5014538;28;19953;-42
2022/07/28 08:43:12;;;;;;;;;;;;;;;;;;5014524;28;19905;-44
2022/07/28 08:45:38;;;;;;;;;;;;;;;;;;5014664;28;19910;-41
2022/07/28 08:48:03;;;;;;;;;;;;;;;;;;5014365;28;19940;-42
2022/07/28 08:50:29;;;;;;;;;;;;;;;;;;5014247;28;19917;-43
2022/07/28 08:52:54;;;;;;;;;;;;;;;;;;5012977;28;19909;-42
2022/07/28 08:55:20;;;;;;;;;;;;;;;;;;5014455;28;19910;-41
2022/07/28 08:57:46;;;;;;;;;;;;;;;;;;5014232;28;20426;-42
2022/07/28 09:00:11;;;;;;;;;;;;;;;;;;5014286;28;19910;-42
2022/07/28 09:02:37;;;;;;;;;;;;;;;;;;5013962;28;19918;-42
2022/07/28 09:05:02;;;;;;;;;;;;;;;;;;5013112;28;20364;-44
2022/07/28 09:07:28;;;;;;;;;;;;;;;;;;5014024;28;19928;-41
2022/07/28 09:09:53;;;;;;;;;;;;;;;;;;5013850;28;19972;-43
2022/07/28 09:12:19;;;;;;;;;;;;;;;;;;5014029;28;20406;-42
2022/07/28 09:14:44;;;;;;;;;;;;;;;;;;5014175;28;19909;-43
2022/07/28 09:17:09;;;;;;;;;;;;;;;;;;5013821;28;19914;-42
2022/07/28 09:19:36;;;;;;;;;;;;;;;;;;5013842;28;19938;-41
2022/07/28 09:22:02;;;;;;;;;;;;;;;;;;5013780;28;19906;-42
2022/07/28 09:24:30;;;;;;;;;;;;;;;;;;5013729;28;20371;-42
2022/07/28 09:26:55;;;;;;;;;;;;;;;;;;5013674;28;19906;-42
2022/07/28 09:29:21;;;;;;;;;;;;;;;;;;5013633;28;19915;-42
2022/07/28 09:31:46;;;;;;;;;;;;;;;;;;5013545;28;20012;-42
2022/07/28 09:34:12;;;;;;;;;;;;;;;;;;5013549;28;20004;-42
2022/07/28 09:36:40;;;;;;;;;;;;;;;;;;5013490;28;19906;-42
2022/07/28 09:39:05;;;;;;;;;;;;;;;;;;5013444;28;19914;-42
2022/07/28 09:41:30;;;;;;;;;;;;;;;;;;5013398;28;19909;-42
2022/07/28 09:43:56;;;;;;;;;;;;;;;;;;5013241;28;19968;-42
2022/07/28 09:46:21;;;;;;;;;;;;;;;;;;5013368;28;19909;-43
2022/07/28 09:48:47;;;;;;;;;;;;;;;;;;5013207;28;19913;-41
2022/07/28 09:51:12;;;;;;;;;;;;;;;;;;5013130;28;19960;-42
2022/07/28 09:53:38;;;;;;;;;;;;;;;;;;5011914;28;19971;-41
2022/07/28 09:56:03;;;;;;;;;;;;;;;;;;5011822;28;19924;-42
2022/07/28 09:58:29;;;;;;;;;;;;;;;;;;5013145;28;19909;-41
2022/07/28 10:00:54;;;;;;;;;;;;;;;;;;5012920;28;19905;-42
2022/07/28 10:03:19;;;;;;;;;;;;;;;;;;5012392;28;19980;-42
2022/07/28 10:05:48;;;;;;;;;;;;;;;;;;5013064;28;19959;-42
2022/07/28 10:08:13;;;;;;;;;;;;;;;;;;5012843;28;19928;-42
2022/07/28 10:10:39;;;;;;;;;;;;;;;;;;5013115;28;19914;-42
2022/07/28 10:13:05;;;;;;;;;;;;;;;;;;5013001;28;19909;-42
2022/07/28 10:18:14;;;;;;;;;;;;;;;;;;5012561;28;19955;-42
2022/07/28 10:20:40;;;;;;;;;;;;;;;;;;5012777;28;20004;-42
2022/07/28 10:23:05;;;;;;;;;;;;;;;;;;5012642;28;19909;-42
2022/07/28 10:25:30;;;;;;;;;;;;;;;;;;5012900;28;19905;-43
2022/07/28 10:27:56;;;;;;;;;;;;;;;;;;5012601;28;20363;-43
2022/07/28 10:30:21;;;;;;;;;;;;;;;;;;5012820;28;19913;-43
2022/07/28 10:32:49;;;;;;;;;;;;;;;;;;5012476;28;19932;-43
2022/07/28 10:35:15;;;;;;;;;;;;;;;;;;5012401;28;19910;-41
2022/07/28 10:37:41;;;;;;;;;;;;;;;;;;5012471;28;19919;-42
2022/07/28 10:40:06;;;;;;;;;;;;;;;;;;5012342;28;19959;-42
2022/07/28 10:42:31;;;;;;;;;;;;;;;;;;5012453;28;19955;-43
2022/07/28 10:44:57;;;;;;;;;;;;;;;;;;5012300;28;19906;-42
2022/07/28 10:47:23;;;;;;;;;;;;;;;;;;5012483;28;19914;-41
2022/07/28 10:49:48;;;;;;;;;;;;;;;;;;5012235;28;19906;-42
2022/07/28 10:52:16;;;;;;;;;;;;;;;;;;5012510;28;19922;-42
2022/07/28 10:54:42;;;;;;;;;;;;;;;;;;5012489;28;19928;-42
2022/07/28 10:57:07;;;;;;;;;;;;;;;;;;5012291;28;20364;-42
2022/07/28 10:59:32;;;;;;;;;;;;;;;;;;5012482;28;20390;-43
2022/07/28 11:01:58;;;;;;;;;;;;;;;;;;5012345;28;19928;-42
2022/07/28 11:04:23;;;;;;;;;;;;;;;;;;5011979;28;20015;-42
2022/07/28 11:06:57;;;;;;;;;;;;;;;;;;5012121;28;19967;-42
2022/07/28 11:09:23;;;;;;;;;;;;;;;;;;5011983;28;20007;-42
2022/07/28 11:11:49;;;;;;;;;;;;;;;;;;5012359;28;20399;-42
2022/07/28 11:14:14;;;;;;;;;;;;;;;;;;5012089;28;20516;-42
2022/07/28 11:16:40;;;;;;;;;;;;;;;;;;5016413;28;19905;-42
2022/07/28 11:19:05;;;;;;;;;;;;;;;;;;5015924;28;19932;-42
2022/07/28 11:21:31;;;;;;;;;;;;;;;;;;5016317;28;19905;-41
2022/07/28 11:23:57;;;;;;;;;;;;;;;;;;5016033;28;19964;-43
2022/07/28 11:26:22;;;;;;;;;;;;;;;;;;5015977;28;20377;-43
2022/07/28 11:28:48;;;;;;;;;;;;;;;;;;5015724;28;20008;-42
2022/07/28 11:31:13;;;;;;;;;;;;;;;;;;5014492;28;19918;-43
2022/07/28 11:33:38;;;;;;;;;;;;;;;;;;5016148;28;20375;-41
2022/07/28 11:36:04;;;;;;;;;;;;;;;;;;5015733;28;19928;-42
2022/07/28 11:38:29;;;;;;;;;;;;;;;;;;5016010;28;19916;-43
2022/07/28 11:40:55;;;;;;;;;;;;;;;;;;5015922;28;19996;-51
2022/07/28 11:43:20;;;;;;;;;;;;;;;;;;5015673;28;20372;-42
2022/07/28 11:45:46;;;;;;;;;;;;;;;;;;5015683;28;19905;-42
2022/07/28 11:48:11;;;;;;;;;;;;;;;;;;5015506;28;19909;-42
2022/07/28 11:50:36;;;;;;;;;;;;;;;;;;5015428;28;20376;-41
2022/07/28 11:53:02;;;;;;;;;;;;;;;;;;5015385;28;19910;-42
2022/07/28 11:55:27;;;;;;;;;;;;;;;;;;5015768;28;19913;-42
2022/07/28 11:57:53;;;;;;;;;;;;;;;;;;5015248;28;19913;-42
2022/07/28 12:00:19;;;;;;;;;;;;;;;;;;5015659;28;19909;-42
2022/07/28 12:02:45;;;;;;;;;;;;;;;;;;5015041;28;19913;-42
2022/07/28 12:05:10;;;;;;;;;;;;;;;;;;5015197;28;19912;-42
2022/07/28 12:07:36;;;;;;;;;;;;;;;;;;5015205;28;19913;-42
2022/07/28 12:10:02;;;;;;;;;;;;;;;;;;5015126;28;20023;-42
2022/07/28 12:12:27;;;;;;;;;;;;;;;;;;5015153;28;19910;-42
2022/07/28 12:14:52;;;;;;;;;;;;;;;;;;5015359;28;20379;-41
2022/07/28 12:17:18;;;;;;;;;;;;;;;;;;5015044;28;19909;-42
2022/07/28 12:19:43;;;;;;;;;;;;;;;;;;5014944;28;20040;-42
2022/07/28 12:22:08;;;;;;;;;;;;;;;;;;5014889;28;19943;-42
2022/07/28 12:24:34;;;;;;;;;;;;;;;;;;5014330;28;19963;-43
2022/07/28 12:27:00;;;;;;;;;;;;;;;;;;5015059;28;19913;-43
2022/07/28 12:29:35;;;;;;;;;;;;;;;;;;5015050;28;20404;-43
2022/07/28 12:32:01;;;;;;;;;;;;;;;;;;5013456;28;20418;-43
2022/07/28 12:34:26;;;;;;;;;;;;;;;;;;5014965;28;20045;-42
2022/07/28 12:36:52;;;;;;;;;;;;;;;;;;5014943;28;20367;-43
2022/07/28 12:39:21;;;;;;;;;;;;;;;;;;5014958;28;19906;-42
2022/07/28 12:41:47;;;;;;;;;;;;;;;;;;5014823;28;20347;-42
2022/07/28 12:44:12;;;;;;;;;;;;;;;;;;5014521;28;19909;-42
2022/07/28 12:46:38;;;;;;;;;;;;;;;;;;5014450;28;19910;-42
2022/07/28 12:49:03;;;;;;;;;;;;;;;;;;5014335;28;19909;-42
2022/07/28 12:51:31;;;;;;;;;;;;;;;;;;5014346;28;20028;-42
2022/07/28 12:54:00;;;;;;;;;;;;;;;;;;5014290;28;19905;-43
2022/07/28 12:56:25;;;;;;;;;;;;;;;;;;5014596;28;20382;-44
2022/07/28 12:58:55;;;;;;;;;;;;;;;;;;5014269;28;20397;-43
2022/07/28 13:01:20;;;;;;;;;;;;;;;;;;5014177;28;20553;-42
2022/07/28 13:03:46;;;;;;;;;;;;;;;;;;5014058;28;19999;-42
2022/07/28 13:06:12;;;;;;;;;;;;;;;;;;5014119;28;19910;-42
2022/07/28 13:08:38;;;;;;;;;;;;;;;;;;5013972;28;19906;-42
2022/07/28 13:11:04;;;;;;;;;;;;;;;;;;5013889;28;19925;-42
2022/07/28 13:13:29;;;;;;;;;;;;;;;;;;5014033;28;19909;-42
2022/07/28 13:15:54;;;;;;;;;;;;;;;;;;5014064;28;19960;-42
2022/07/28 13:18:20;;;;;;;;;;;;;;;;;;5014149;28;19964;-42
2022/07/28 13:20:45;;;;;;;;;;;;;;;;;;5013852;28;19913;-42
2022/07/28 13:23:11;;;;;;;;;;;;;;;;;;5013721;28;19917;-42
2022/07/28 13:25:36;;;;;;;;;;;;;;;;;;5013748;28;19910;-42
2022/07/28 13:28:01;;;;;;;;;;;;;;;;;;5013927;28;19921;-42
2022/07/28 13:30:27;;;;;;;;;;;;;;;;;;5012247;28;19913;-42
2022/07/28 13:32:53;;;;;;;;;;;;;;;;;;5013675;28;20032;-42
2022/07/28 13:35:19;;;;;;;;;;;;;;;;;;5013584;28;20008;-42
2022/07/28 13:37:44;;;;;;;;;;;;;;;;;;5012849;28;19992;-42
2022/07/28 13:40:09;;;;;;;;;;;;;;;;;;5013493;28;19956;-42
2022/07/28 13:42:35;;;;;;;;;;;;;;;;;;5013399;28;20295;-42
2022/07/28 13:45:00;;;;;;;;;;;;;;;;;;5013579;28;19910;-42
2022/07/28 13:47:26;;;;;;;;;;;;;;;;;;5013317;28;19906;-42
2022/07/28 13:49:51;;;;;;;;;;;;;;;;;;5013301;28;19920;-42
2022/07/28 13:52:18;;;;;;;;;;;;;;;;;;5013137;28;19909;-43
2022/07/28 13:54:44;;;;;;;;;;;;;;;;;;5013531;28;20288;-43
2022/07/28 13:57:09;;;;;;;;;;;;;;;;;;5013094;28;19915;-43
2022/07/28 13:59:35;;;;;;;;;;;;;;;;;;5013157;28;19920;-41
2022/07/28 14:02:00;;;;;;;;;;;;;;;;;;5013326;28;19915;-42
2022/07/28 14:04:25;;;;;;;;;;;;;;;;;;5012906;28;20438;-43
2022/07/28 14:06:51;;;;;;;;;;;;;;;;;;5013230;28;19906;-42
2022/07/28 14:09:16;;;;;;;;;;;;;;;;;;5012879;28;20241;-43
2022/07/28 14:11:41;;;;;;;;;;;;;;;;;;5012893;28;19913;-42
2022/07/28 14:14:07;;;;;;;;;;;;;;;;;;5012781;28;19916;-42
2022/07/28 14:16:32;;;;;;;;;;;;;;;;;;5012831;28;19913;-42
2022/07/28 14:18:58;;;;;;;;;;;;;;;;;;5011409;28;19909;-43
2022/07/28 14:21:24;;;;;;;;;;;;;;;;;;5013019;28;20351;-42
2022/07/28 14:23:49;;;;;;;;;;;;;;;;;;5013097;28;19916;-43
2022/07/28 14:26:14;;;;;;;;;;;;;;;;;;5012648;28;20386;-42
2022/07/28 14:28:40;;;;;;;;;;;;;;;;;;5012630;28;19948;-42
2022/07/28 14:31:07;;;;;;;;;;;;;;;;;;5012811;28;19917;-42
2022/07/28 14:33:33;;;;;;;;;;;;;;;;;;5012603;28;19943;-43
2022/07/28 14:35:59;;;;;;;;;;;;;;;;;;5012444;28;19924;-43
2022/07/28 14:38:24;;;;;;;;;;;;;;;;;;5011178;28;19916;-42
2022/07/28 14:40:50;;;;;;;;;;;;;;;;;;5012460;28;20012;-42
2022/07/28 14:43:15;;;;;;;;;;;;;;;;;;5012352;28;19909;-42
2022/07/28 14:45:41;;;;;;;;;;;;;;;;;;5012419;28;19916;-43
2022/07/28 14:48:06;;;;;;;;;;;;;;;;;;5012351;28;19941;-42
2022/07/28 14:50:32;;;;;;;;;;;;;;;;;;5012534;28;19917;-42
2022/07/28 14:52:57;;;;;;;;;;;;;;;;;;5012259;28;19952;-42
2022/07/28 14:55:23;;;;;;;;;;;;;;;;;;5012258;28;19916;-41
2022/07/28 14:57:48;;;;;;;;;;;;;;;;;;5012226;28;19936;-42
2022/07/28 15:00:14;;;;;;;;;;;;;;;;;;5012214;28;19914;-42
2022/07/28 15:02:42;;;;;;;;;;;;;;;;;;5012268;28;19917;-44
2022/07/28 15:05:10;;;;;;;;;;;;;;;;;;5012140;28;19921;-43
2022/07/28 15:07:36;;;;;;;;;;;;;;;;;;5012105;28;19909;-43
2022/07/28 15:10:01;;;;;;;;;;;;;;;;;;5011992;28;20000;-42
2022/07/28 15:12:26;;;;;;;;;;;;;;;;;;5012376;28;20000;-43
2022/07/28 15:14:52;;;;;;;;;;;;;;;;;;5012125;28;20383;-43
2022/07/28 15:17:18;;;;;;;;;;;;;;;;;;5012105;28;19916;-44
2022/07/28 15:19:43;;;;;;;;;;;;;;;;;;5012293;28;19961;-42
2022/07/28 15:22:09;;;;;;;;;;;;;;;;;;5011938;28;19916;-43
2022/07/28 15:24:35;;;;;;;;;;;;;;;;;;5011993;28;19905;-42
2022/07/28 15:27:01;;;;;;;;;;;;;;;;;;5011857;28;19916;-42
2022/07/28 15:29:29;;;;;;;;;;;;;;;;;;5011949;28;19905;-42
2022/07/28 15:31:55;;;;;;;;;;;;;;;;;;5011720;28;19968;-42
2022/07/28 15:34:20;;;;;;;;;;;;;;;;;;5011931;28;19988;-42
2022/07/28 15:36:46;;;;;;;;;;;;;;;;;;5011809;28;19916;-42
2022/07/28 15:39:14;;;;;;;;;;;;;;;;;;5011740;28;19909;-42
2022/07/28 15:41:39;;;;;;;;;;;;;;;;;;5011931;28;19957;-43
2022/07/28 15:44:05;;;;;;;;;;;;;;;;;;5012035;28;19963;-42
2022/07/28 15:46:32;;;;;;;;;;;;;;;;;;5011808;28;19956;-42
2022/07/28 15:48:59;;;;;;;;;;;;;;;;;;5011655;28;19992;-42
2022/07/28 15:51:24;;;;;;;;;;;;;;;;;;5011966;28;19967;-43
2022/07/28 15:53:54;;;;;;;;;;;;;;;;;;5011644;28;19940;-42
2022/07/28 15:56:20;;;;;;;;;;;;;;;;;;5012022;28;19929;-42
2022/07/28 15:58:45;;;;;;;;;;;;;;;;;;5011630;28;19932;-42
2022/07/28 16:01:11;;;;;;;;;;;;;;;;;;5014382;28;19913;-42
2022/07/28 16:03:36;;;;;;;;;;;;;;;;;;5015172;28;19932;-42
2022/07/28 16:06:02;;;;;;;;;;;;;;;;;;5015429;28;19940;-42
2022/07/28 16:08:27;;;;;;;;;;;;;;;;;;5015518;28;19940;-42
2022/07/28 16:10:53;;;;;;;;;;;;;;;;;;5015148;28;20334;-42
2022/07/28 16:13:18;;;;;;;;;;;;;;;;;;5015078;28;19905;-42
2022/07/28 16:15:44;;;;;;;;;;;;;;;;;;5015223;28;19917;-42
2022/07/28 16:20:56;;;;;;;;;;;;;;;;;;5015201;28;20318;-42
2022/07/28 16:23:28;;;;;;;;;;;;;;;;;;5015003;28;19909;-42
2022/07/28 16:25:53;;;;;;;;;;;;;;;;;;5014892;28;19968;-43
2022/07/28 16:28:19;;;;;;;;;;;;;;;;;;5014651;28;20360;-42
2022/07/28 16:30:44;;;;;;;;;;;;;;;;;;5014968;28;19924;-45
2022/07/28 16:33:09;;;;;;;;;;;;;;;;;;5014754;28;20372;-42
2022/07/28 16:35:34;;;;;;;;;;;;;;;;;;5014675;28;19916;-42
2022/07/28 16:38:00;;;;;;;;;;;;;;;;;;5014620;28;19905;-43
2022/07/28 16:40:25;;;;;;;;;;;;;;;;;;5014577;28;20000;-42